Външен сензор Measurements

Back to Overview

Timestamp Temperature Humidity
12/10/2018 10:51:13 PM -4.0 C 96.1%
12/10/2018 10:44:11 PM -4.0 C 96.0%
12/10/2018 10:37:09 PM -4.0 C 95.9%
12/10/2018 10:30:07 PM -3.9 C 95.9%
12/10/2018 10:23:05 PM -3.8 C 95.8%
12/10/2018 10:16:03 PM -3.7 C 95.9%
12/10/2018 10:09:01 PM -3.6 C 96.0%
12/10/2018 10:02:00 PM -3.5 C 96.0%
12/10/2018 9:54:58 PM -3.4 C 96.1%
12/10/2018 9:47:55 PM -3.3 C 96.2%
12/10/2018 9:40:54 PM -3.3 C 96.2%
12/10/2018 9:33:52 PM -3.2 C 96.3%
12/10/2018 9:26:49 PM -3.2 C 96.1%
12/10/2018 9:19:48 PM -3.1 C 96.2%
12/10/2018 9:12:47 PM -3.0 C 96.2%
12/10/2018 9:05:46 PM -2.9 C 96.3%
12/10/2018 8:58:43 PM -2.9 C 96.4%
12/10/2018 8:51:41 PM -2.8 C 96.4%
12/10/2018 8:44:38 PM -2.7 C 96.6%
12/10/2018 8:37:38 PM -2.6 C 96.8%
12/10/2018 8:30:36 PM -2.6 C 96.8%
12/10/2018 8:23:34 PM -2.7 C 96.7%
12/10/2018 8:16:32 PM -2.9 C 96.5%
12/10/2018 8:09:29 PM -3.0 C 96.4%
12/10/2018 8:02:28 PM -3.1 C 96.3%
12/10/2018 7:55:26 PM -3.1 C 96.1%
12/10/2018 7:48:24 PM -3.0 C 96.3%
12/10/2018 7:41:22 PM -2.9 C 96.4%
12/10/2018 7:34:21 PM -2.9 C 96.4%
12/10/2018 7:27:19 PM -2.9 C 96.3%
12/10/2018 7:20:17 PM -2.9 C 96.3%
12/10/2018 7:13:08 PM -2.9 C 96.3%
12/10/2018 7:06:14 PM -3.0 C 96.2%
12/10/2018 6:59:12 PM -3.0 C 96.2%
12/10/2018 6:52:10 PM -3.0 C 96.2%
12/10/2018 6:45:08 PM -3.0 C 96.3%
12/10/2018 6:38:06 PM -3.0 C 96.1%
12/10/2018 6:31:04 PM -3.0 C 96.0%
12/10/2018 6:24:02 PM -2.9 C 96.1%
12/10/2018 6:17:00 PM -2.9 C 96.1%
12/10/2018 6:09:57 PM -2.8 C 96.0%
12/10/2018 6:02:56 PM -2.7 C 95.9%
12/10/2018 5:55:54 PM -2.7 C 95.9%
12/10/2018 5:48:52 PM -2.7 C 95.8%
12/10/2018 5:41:51 PM -2.6 C 95.8%
12/10/2018 5:34:48 PM -2.4 C 95.8%
12/10/2018 5:27:46 PM -2.4 C 95.9%
12/10/2018 5:20:45 PM -2.4 C 95.7%
12/10/2018 5:13:42 PM -2.3 C 95.6%
12/10/2018 5:06:40 PM -2.1 C 95.6%